Time;durP1;ratioP1;P1;durP2;ratioP2;P2;SDS_P1;SDS_P2;PMS_P1;PMS_P2;Temp;Humidity;BMP_temperature;BMP_pressure;BME280_temperature;BME280_humidity;BME280_pressure;Samples;Min_cycle;Max_cycle;Signal;HPM_P1;HPM_P2
2023/12/28 00:01:07;;;;;;;8.98;4.00;;;;;;;;;;5069043;28;20034;-78
2023/12/28 00:03:33;;;;;;;7.72;3.53;;;;;;;;;;5055471;28;20152;-79
2023/12/28 00:05:58;;;;;;;9.68;3.92;;;;;;;;;;5053558;28;20040;-79
2023/12/28 00:08:24;;;;;;;7.28;3.35;;;;;;;;;;5054411;28;20531;-81
2023/12/28 00:10:49;;;;;;;7.60;3.50;;;;;;;;;;5061986;28;20044;-82
2023/12/28 00:13:14;;;;;;;7.72;3.25;;;;;;;;;;5054127;28;20124;-81
2023/12/28 00:15:40;;;;;;;8.00;3.28;;;;;;;;;;5069365;28;20025;-80
2023/12/28 00:18:05;;;;;;;7.32;3.20;;;;;;;;;;5054454;28;20365;-79
2023/12/28 00:20:31;;;;;;;6.55;3.45;;;;;;;;;;5054830;28;20583;-80
2023/12/28 00:22:58;;;;;;;6.57;3.40;;;;;;;;;;5051961;28;20090;-81
2023/12/28 00:25:23;;;;;;;6.93;3.33;;;;;;;;;;5051917;28;20116;-80
2023/12/28 00:27:49;;;;;;;6.85;3.22;;;;;;;;;;5054182;28;20476;-80
2023/12/28 00:30:16;;;;;;;7.82;3.50;;;;;;;;;;5055023;28;20116;-80
2023/12/28 00:32:44;;;;;;;7.95;3.42;;;;;;;;;;5051438;28;20029;-81
2023/12/28 00:35:10;;;;;;;6.80;3.28;;;;;;;;;;5052828;28;20028;-80
2023/12/28 00:37:35;;;;;;;7.03;3.30;;;;;;;;;;5061657;28;20047;-81
2023/12/28 00:40:00;;;;;;;8.00;2.90;;;;;;;;;;5054824;28;20029;-80
2023/12/28 00:42:26;;;;;;;5.85;3.08;;;;;;;;;;5062646;28;20036;-80
2023/12/28 00:44:53;;;;;;;6.63;3.30;;;;;;;;;;5056032;28;20029;-80
2023/12/28 00:47:18;;;;;;;8.57;2.88;;;;;;;;;;5069960;28;20036;-80
2023/12/28 00:49:43;;;;;;;6.45;2.90;;;;;;;;;;5056206;28;20036;-79
2023/12/28 00:52:09;;;;;;;8.55;3.17;;;;;;;;;;5069551;28;20116;-79
2023/12/28 00:54:36;;;;;;;7.57;3.20;;;;;;;;;;5054623;28;20041;-79
2023/12/28 00:57:02;;;;;;;;;;;;;;;;;;5050090;28;20032;-79
2023/12/28 00:59:28;;;;;;;5.15;2.80;;;;;;;;;;5079698;28;19916;-80
2023/12/28 01:01:53;;;;;;;6.22;3.17;;;;;;;;;;5053004;28;20354;-79
2023/12/28 01:04:18;;;;;;;5.88;2.90;;;;;;;;;;5070006;28;20070;-79
2023/12/28 01:06:44;;;;;;;6.53;3.03;;;;;;;;;;5053855;28;20484;-79
2023/12/28 01:09:09;;;;;;;6.97;2.97;;;;;;;;;;5040466;28;20040;-79
2023/12/28 01:11:34;;;;;;;5.28;2.85;;;;;;;;;;5052117;28;20060;-79
2023/12/28 01:14:00;;;;;;;7.20;3.05;;;;;;;;;;5054249;28;20032;-79
2023/12/28 01:16:25;;;;;;;9.27;3.25;;;;;;;;;;5051145;28;20544;-80
2023/12/28 01:18:50;;;;;;;6.38;2.80;;;;;;;;;;5053297;28;20067;-80
2023/12/28 01:21:17;;;;;;;5.20;2.40;;;;;;;;;;5052291;28;20079;-80
2023/12/28 01:23:42;;;;;;;5.65;2.50;;;;;;;;;;5055783;28;20155;-80
2023/12/28 01:26:15;;;;;;;6.88;3.08;;;;;;;;;;5054601;28;20453;-80
2023/12/28 01:28:44;;;;;;;6.57;3.00;;;;;;;;;;5054526;28;20557;-80
2023/12/28 01:31:09;;;;;;;7.32;2.72;;;;;;;;;;5051980;28;20036;-79
2023/12/28 01:33:37;;;;;;;4.32;2.28;;;;;;;;;;5070480;28;20526;-79
2023/12/28 01:36:03;;;;;;;5.85;2.50;;;;;;;;;;5055457;28;20501;-79
2023/12/28 01:38:29;;;;;;;6.03;2.50;;;;;;;;;;5038307;28;20220;-81
2023/12/28 01:40:54;;;;;;;4.97;2.35;;;;;;;;;;5052993;28;20128;-81
2023/12/28 01:43:20;;;;;;;4.82;2.20;;;;;;;;;;5052538;28;20033;-80
2023/12/28 01:45:45;;;;;;;4.82;1.85;;;;;;;;;;5053393;28;20037;-80
2023/12/28 01:48:12;;;;;;;4.88;2.00;;;;;;;;;;5054694;28;20040;-80
2023/12/28 01:50:37;;;;;;;6.63;2.40;;;;;;;;;;5044957;28;20029;-80
2023/12/28 01:53:03;;;;;;;4.47;2.00;;;;;;;;;;5057434;28;20529;-79
2023/12/28 01:55:29;;;;;;;4.85;2.30;;;;;;;;;;5050341;28;20044;-81
2023/12/28 01:57:55;;;;;;;5.40;2.10;;;;;;;;;;5054536;28;20229;-80
2023/12/28 02:00:22;;;;;;;5.15;2.08;;;;;;;;;;5052227;28;20116;-80
2023/12/28 02:02:47;;;;;;;4.13;1.80;;;;;;;;;;5053677;28;20041;-80
2023/12/28 02:05:14;;;;;;;4.40;1.90;;;;;;;;;;5052393;28;20387;-81
2023/12/28 02:07:39;;;;;;;5.60;2.35;;;;;;;;;;5052401;28;20039;-80
2023/12/28 02:10:05;;;;;;;5.60;2.50;;;;;;;;;;5052370;28;20037;-79
2023/12/28 02:12:31;;;;;;;4.03;2.03;;;;;;;;;;5050864;28;20053;-80
2023/12/28 02:14:57;;;;;;;4.88;2.15;;;;;;;;;;5054757;28;20070;-80
2023/12/28 02:17:41;;;;;;;4.15;1.85;;;;;;;;;;5050880;28;20514;-80
2023/12/28 02:20:07;;;;;;;4.53;2.03;;;;;;;;;;5053308;28;20469;-79
2023/12/28 02:22:33;;;;;;;3.70;1.70;;;;;;;;;;5053031;28;20040;-79
2023/12/28 02:25:19;;;;;;;4.32;1.65;;;;;;;;;;5053326;28;20033;-79
2023/12/28 02:27:47;;;;;;;5.38;1.98;;;;;;;;;;5042425;28;20404;-79
2023/12/28 02:30:15;;;;;;;5.25;1.85;;;;;;;;;;5038737;28;20037;-80
2023/12/28 02:32:53;;;;;;;3.65;1.50;;;;;;;;;;5068022;28;20033;-80
2023/12/28 02:35:42;;;;;;;4.32;1.83;;;;;;;;;;5055908;28;20502;-79
2023/12/28 02:38:09;;;;;;;4.03;1.70;;;;;;;;;;5055376;28;20044;-79
2023/12/28 02:40:39;;;;;;;5.10;1.80;;;;;;;;;;5052835;28;20045;-81
2023/12/28 02:43:08;;;;;;;4.18;1.80;;;;;;;;;;5047821;28;20039;-80
2023/12/28 02:45:34;;;;;;;3.30;1.60;;;;;;;;;;5044240;28;20032;-79
2023/12/28 02:47:59;;;;;;;6.22;1.73;;;;;;;;;;5066253;28;20392;-80
2023/12/28 02:50:24;;;;;;;4.22;1.40;;;;;;;;;;5053446;28;20033;-80
2023/12/28 02:52:50;;;;;;;3.95;1.58;;;;;;;;;;5057081;28;20052;-79
2023/12/28 02:55:15;;;;;;;4.88;1.60;;;;;;;;;;5056381;28;20048;-80
2023/12/28 02:57:41;;;;;;;3.55;1.42;;;;;;;;;;5050559;28;20187;-81
2023/12/28 03:00:08;;;;;;;4.82;1.33;;;;;;;;;;5059467;28;20124;-79
2023/12/28 03:02:36;;;;;;;3.03;1.48;;;;;;;;;;5041615;28;20037;-80
2023/12/28 03:05:01;;;;;;;2.97;1.30;;;;;;;;;;5064194;28;20163;-81
2023/12/28 03:07:26;;;;;;;3.00;1.40;;;;;;;;;;5054517;28;20132;-80
2023/12/28 03:09:52;;;;;;;4.47;1.20;;;;;;;;;;5058125;28;20072;-80
2023/12/28 03:12:17;;;;;;;4.20;1.30;;;;;;;;;;5063703;28;20067;-79
2023/12/28 03:14:43;;;;;;;3.03;1.40;;;;;;;;;;5058259;28;20040;-81
2023/12/28 03:17:09;;;;;;;3.30;1.30;;;;;;;;;;5051427;28;20037;-80
2023/12/28 03:19:36;;;;;;;3.35;1.10;;;;;;;;;;5057524;28;20745;-80
2023/12/28 03:22:01;;;;;;;4.82;1.48;;;;;;;;;;5054929;28;20032;-81
2023/12/28 03:24:26;;;;;;;2.97;1.20;;;;;;;;;;5055425;28;20041;-80
2023/12/28 03:26:52;;;;;;;4.00;1.30;;;;;;;;;;5054119;28;20111;-79
2023/12/28 03:29:17;;;;;;;3.33;1.30;;;;;;;;;;5074687;28;20040;-81
2023/12/28 03:31:43;;;;;;;3.13;1.35;;;;;;;;;;5056498;28;20447;-80
2023/12/28 03:34:08;;;;;;;3.03;1.30;;;;;;;;;;5042235;28;20028;-80
2023/12/28 03:36:33;;;;;;;3.13;1.13;;;;;;;;;;5054065;28;20036;-80
2023/12/28 03:38:59;;;;;;;2.75;1.00;;;;;;;;;;5053303;28;20032;-81
2023/12/28 03:41:24;;;;;;;3.03;1.25;;;;;;;;;;5054809;28;20040;-81
2023/12/28 03:43:50;;;;;;;3.35;1.05;;;;;;;;;;5054241;28;20043;-81
2023/12/28 03:46:15;;;;;;;6.13;1.42;;;;;;;;;;5053360;28;20070;-80
2023/12/28 03:48:40;;;;;;;3.67;1.27;;;;;;;;;;5054776;28;20372;-80
2023/12/28 03:51:06;;;;;;;3.67;1.30;;;;;;;;;;5069258;28;20095;-80
2023/12/28 03:53:31;;;;;;;3.20;1.10;;;;;;;;;;5055205;28;20170;-80
2023/12/28 03:55:58;;;;;;;3.03;1.10;;;;;;;;;;5053875;28;20035;-81
2023/12/28 03:58:23;;;;;;;3.40;1.20;;;;;;;;;;5055279;28;20044;-80
2023/12/28 04:00:48;;;;;;;3.65;1.35;;;;;;;;;;5055348;28;20392;-80
2023/12/28 04:03:14;;;;;;;2.83;1.10;;;;;;;;;;5063650;28;20032;-80
2023/12/28 04:05:39;;;;;;;3.40;1.40;;;;;;;;;;5063426;28;20029;-80
2023/12/28 04:08:05;;;;;;;3.03;1.10;;;;;;;;;;5055729;28;20189;-80
2023/12/28 04:10:32;;;;;;;3.13;1.27;;;;;;;;;;5056026;28;20396;-80
2023/12/28 04:12:58;;;;;;;4.47;1.57;;;;;;;;;;5059237;28;20037;-80
2023/12/28 04:15:26;;;;;;;2.60;1.10;;;;;;;;;;5062181;28;20337;-80
2023/12/28 04:17:52;;;;;;;3.28;1.45;;;;;;;;;;5070440;28;20112;-80
2023/12/28 04:20:17;;;;;;;2.97;1.23;;;;;;;;;;5053616;28;20125;-80
2023/12/28 04:22:43;;;;;;;2.80;1.30;;;;;;;;;;5055397;28;20044;-81
2023/12/28 04:25:09;;;;;;;3.42;1.40;;;;;;;;;;5053852;28;20119;-80
2023/12/28 04:27:35;;;;;;;2.67;1.10;;;;;;;;;;5049984;28;20488;-80
2023/12/28 04:30:00;;;;;;;2.70;1.15;;;;;;;;;;5052403;28;20033;-81
2023/12/28 04:32:27;;;;;;;3.50;1.17;;;;;;;;;;5056252;28;20029;-80
2023/12/28 04:34:53;;;;;;;2.90;1.13;;;;;;;;;;5054736;28;20067;-80
2023/12/28 04:37:19;;;;;;;2.83;1.25;;;;;;;;;;5055194;28;20488;-80
2023/12/28 04:39:44;;;;;;;3.60;1.10;;;;;;;;;;5046595;28;20051;-80
2023/12/28 04:42:10;;;;;;;3.00;1.08;;;;;;;;;;5051752;28;20041;-81
2023/12/28 04:44:38;;;;;;;2.85;1.10;;;;;;;;;;5045616;28;20100;-81
2023/12/28 04:47:04;;;;;;;3.80;1.20;;;;;;;;;;5052506;28;20075;-80
2023/12/28 04:49:30;;;;;;;2.60;1.10;;;;;;;;;;5052532;28;20061;-79
2023/12/28 04:51:55;;;;;;;3.53;1.30;;;;;;;;;;5056345;28;20082;-80
2023/12/28 04:54:21;;;;;;;3.22;1.35;;;;;;;;;;5052999;28;20079;-80
2023/12/28 04:56:46;;;;;;;2.90;1.20;;;;;;;;;;5053546;28;20416;-80
2023/12/28 04:59:12;;;;;;;2.70;1.40;;;;;;;;;;5056363;28;20040;-81
2023/12/28 05:01:41;;;;;;;2.80;1.10;;;;;;;;;;5038519;28;20222;-81
2023/12/28 05:04:07;;;;;;;2.92;0.95;;;;;;;;;;5060038;28;20036;-80
2023/12/28 05:06:32;;;;;;;2.40;1.00;;;;;;;;;;5048108;28;20044;-81
2023/12/28 05:08:57;;;;;;;3.00;1.30;;;;;;;;;;5067849;28;20041;-81
2023/12/28 05:11:23;;;;;;;3.80;1.20;;;;;;;;;;5051307;28;20057;-79
2023/12/28 05:13:48;;;;;;;2.55;1.08;;;;;;;;;;5069979;28;20046;-80
2023/12/28 05:16:14;;;;;;;4.47;1.30;;;;;;;;;;5050630;28;20033;-81
2023/12/28 05:18:39;;;;;;;2.95;1.20;;;;;;;;;;5054141;28;20029;-80
2023/12/28 05:21:04;;;;;;;3.58;1.30;;;;;;;;;;5068124;28;20094;-80
2023/12/28 05:23:30;;;;;;;3.70;1.20;;;;;;;;;;5051299;28;20043;-80
2023/12/28 05:25:55;;;;;;;4.65;1.50;;;;;;;;;;5061272;28;20401;-80
2023/12/28 05:28:20;;;;;;;4.35;1.33;;;;;;;;;;5034611;28;20086;-80
2023/12/28 05:30:46;;;;;;;5.47;1.25;;;;;;;;;;5050981;28;20041;-80
2023/12/28 05:33:11;;;;;;;3.08;1.10;;;;;;;;;;5055316;28;20033;-81
2023/12/28 05:35:37;;;;;;;2.83;1.20;;;;;;;;;;5066360;28;20033;-80
2023/12/28 05:38:02;;;;;;;3.00;1.20;;;;;;;;;;5051679;28;20571;-80
2023/12/28 05:40:27;;;;;;;2.78;1.20;;;;;;;;;;5053104;28;20052;-79
2023/12/28 05:42:53;;;;;;;3.08;1.33;;;;;;;;;;5053947;28;20024;-80
2023/12/28 05:45:18;;;;;;;2.72;1.30;;;;;;;;;;5052230;28;20087;-80
2023/12/28 05:47:44;;;;;;;2.80;1.10;;;;;;;;;;5053034;28;20029;-82
2023/12/28 05:50:10;;;;;;;3.70;1.10;;;;;;;;;;5053690;28;20047;-80
2023/12/28 05:52:35;;;;;;;3.58;1.10;;;;;;;;;;5053929;28;20045;-80
2023/12/28 05:55:00;;;;;;;4.32;1.42;;;;;;;;;;5053168;28;20032;-79
2023/12/28 05:57:29;;;;;;;2.30;1.15;;;;;;;;;;5053292;28;20033;-79
2023/12/28 05:59:55;;;;;;;3.15;1.10;;;;;;;;;;5068245;28;20033;-80
2023/12/28 06:02:20;;;;;;;3.63;1.20;;;;;;;;;;5070400;28;20029;-80
2023/12/28 06:04:46;;;;;;;2.78;1.20;;;;;;;;;;5053073;28;20067;-80
2023/12/28 06:07:11;;;;;;;3.60;1.27;;;;;;;;;;5054344;28;20396;-80
2023/12/28 06:09:38;;;;;;;3.75;1.20;;;;;;;;;;5052477;28;20475;-80
2023/12/28 06:12:07;;;;;;;3.15;1.20;;;;;;;;;;5051614;28;20040;-80
2023/12/28 06:14:32;;;;;;;3.83;1.40;;;;;;;;;;5050560;28;20036;-79
2023/12/28 06:16:58;;;;;;;3.85;1.10;;;;;;;;;;5053491;28;20500;-80
2023/12/28 06:19:23;;;;;;;3.50;1.20;;;;;;;;;;5051334;28;20090;-80
2023/12/28 06:21:49;;;;;;;3.33;1.20;;;;;;;;;;5051991;28;20146;-80
2023/12/28 06:24:14;;;;;;;3.67;1.20;;;;;;;;;;5067852;28;20035;-80
2023/12/28 06:26:43;;;;;;;3.13;1.10;;;;;;;;;;5064718;28;20422;-79
2023/12/28 06:29:09;;;;;;;4.95;1.35;;;;;;;;;;5057087;28;20043;-80
2023/12/28 06:31:36;;;;;;;2.97;1.15;;;;;;;;;;5056361;28;20044;-81
2023/12/28 06:34:03;;;;;;;2.80;0.90;;;;;;;;;;5058485;28;20029;-81
2023/12/28 06:36:30;;;;;;;3.33;1.30;;;;;;;;;;5056500;28;20086;-80
2023/12/28 06:38:55;;;;;;;3.00;1.08;;;;;;;;;;5058169;28;20037;-80
2023/12/28 06:41:20;;;;;;;5.32;1.30;;;;;;;;;;5070215;28;20511;-79
2023/12/28 06:43:46;;;;;;;4.30;1.40;;;;;;;;;;5066503;28;20037;-80
2023/12/28 06:46:11;;;;;;;3.17;1.30;;;;;;;;;;5054839;28;20046;-80
2023/12/28 06:48:40;;;;;;;3.63;1.27;;;;;;;;;;5055196;28;20044;-79
2023/12/28 06:51:05;;;;;;;3.78;1.50;;;;;;;;;;5044344;28;20498;-79
2023/12/28 06:53:31;;;;;;;2.72;1.15;;;;;;;;;;5055427;28;20052;-80
2023/12/28 06:55:56;;;;;;;2.28;0.95;;;;;;;;;;5055298;28;20052;-80
2023/12/28 06:58:21;;;;;;;3.35;1.20;;;;;;;;;;5058419;28;20021;-80
2023/12/28 07:00:47;;;;;;;3.83;1.20;;;;;;;;;;5057110;28;20068;-82
2023/12/28 07:03:12;;;;;;;5.10;1.30;;;;;;;;;;5056061;28;20044;-80
2023/12/28 07:05:38;;;;;;;2.88;1.20;;;;;;;;;;5056207;28;20086;-81
2023/12/28 07:08:03;;;;;;;3.85;1.33;;;;;;;;;;5065031;28;20025;-79
2023/12/28 07:10:29;;;;;;;4.38;1.23;;;;;;;;;;5056766;28;20131;-80
2023/12/28 07:12:54;;;;;;;2.70;1.15;;;;;;;;;;5051695;28;20086;-80
2023/12/28 07:15:19;;;;;;;3.30;1.30;;;;;;;;;;5053463;28;20033;-79
2023/12/28 07:17:45;;;;;;;3.05;1.40;;;;;;;;;;5058249;28;20060;-79
2023/12/28 07:20:10;;;;;;;3.97;1.20;;;;;;;;;;5054666;28;20531;-80
2023/12/28 07:22:37;;;;;;;2.80;1.13;;;;;;;;;;5058216;28;21079;-80
2023/12/28 07:25:03;;;;;;;4.43;1.40;;;;;;;;;;5055502;28;20099;-80
2023/12/28 07:27:29;;;;;;;2.90;1.15;;;;;;;;;;5063558;28;20040;-80
2023/12/28 07:29:54;;;;;;;3.13;1.30;;;;;;;;;;5063780;28;20052;-80
2023/12/28 07:32:22;;;;;;;4.20;1.42;;;;;;;;;;5053987;28;20037;-80
2023/12/28 07:34:48;;;;;;;2.60;1.20;;;;;;;;;;5042475;28;20040;-82
2023/12/28 07:37:13;;;;;;;4.32;1.30;;;;;;;;;;5056352;28;20045;-80
2023/12/28 07:39:38;;;;;;;3.47;1.45;;;;;;;;;;5057704;28;20029;-80
2023/12/28 07:42:04;;;;;;;3.35;1.50;;;;;;;;;;5038386;28;20040;-81
2023/12/28 07:44:31;;;;;;;3.25;1.20;;;;;;;;;;5063667;28;20368;-80
2023/12/28 07:46:56;;;;;;;4.22;1.40;;;;;;;;;;5055040;28;20028;-79
2023/12/28 07:49:22;;;;;;;2.97;1.20;;;;;;;;;;5058417;28;20055;-80
2023/12/28 07:51:47;;;;;;;4.18;1.48;;;;;;;;;;5050878;28;20374;-81
2023/12/28 07:54:12;;;;;;;3.40;1.15;;;;;;;;;;5055416;28;20094;-79
2023/12/28 07:56:38;;;;;;;3.70;1.30;;;;;;;;;;5055110;28;20105;-80
2023/12/28 07:59:03;;;;;;;3.85;1.13;;;;;;;;;;5056255;28;20051;-80
2023/12/28 08:01:29;;;;;;;4.07;1.42;;;;;;;;;;5056970;28;20128;-78
2023/12/28 08:03:54;;;;;;;3.17;1.35;;;;;;;;;;5070569;28;20437;-79
2023/12/28 08:06:20;;;;;;;3.33;1.50;;;;;;;;;;5054020;28;20127;-80
2023/12/28 08:08:45;;;;;;;3.92;1.30;;;;;;;;;;5057526;28;20037;-79
2023/12/28 08:11:12;;;;;;;2.90;1.30;;;;;;;;;;5055581;28;20075;-80
2023/12/28 08:13:37;;;;;;;4.40;1.63;;;;;;;;;;5056379;28;20076;-80
2023/12/28 08:16:02;;;;;;;5.40;1.30;;;;;;;;;;5056148;28;20055;-80
2023/12/28 08:18:28;;;;;;;3.08;1.20;;;;;;;;;;5055276;28;20032;-80
2023/12/28 08:20:54;;;;;;;2.92;1.30;;;;;;;;;;5053676;28;20132;-78
2023/12/28 08:23:19;;;;;;;3.72;1.35;;;;;;;;;;5057577;28;20048;-78
2023/12/28 08:25:45;;;;;;;4.40;1.63;;;;;;;;;;5054647;28;20075;-79
2023/12/28 08:28:10;;;;;;;2.85;1.45;;;;;;;;;;5053396;28;20033;-79
2023/12/28 08:30:36;;;;;;;3.22;1.45;;;;;;;;;;5051824;28;20492;-79
2023/12/28 08:33:01;;;;;;;3.15;1.40;;;;;;;;;;5061248;28;20032;-79
2023/12/28 08:35:26;;;;;;;2.97;1.38;;;;;;;;;;5054619;28;20112;-79
2023/12/28 08:37:52;;;;;;;2.97;1.20;;;;;;;;;;5053268;28;20040;-79
2023/12/28 08:40:17;;;;;;;3.80;1.30;;;;;;;;;;5052740;28;20033;-81
2023/12/28 08:42:45;;;;;;;4.85;1.48;;;;;;;;;;5057328;28;20033;-81
2023/12/28 08:45:10;;;;;;;4.45;1.50;;;;;;;;;;5050111;28;20136;-80
2023/12/28 08:47:47;;;;;;;3.38;1.42;;;;;;;;;;5066671;28;20189;-79
2023/12/28 08:50:12;;;;;;;4.13;1.45;;;;;;;;;;5054842;28;20032;-81
2023/12/28 08:52:38;;;;;;;4.15;1.50;;;;;;;;;;5052066;28;20118;-80
2023/12/28 08:55:05;;;;;;;3.42;1.13;;;;;;;;;;5045261;28;20127;-79
2023/12/28 08:57:31;;;;;;;2.95;1.45;;;;;;;;;;5054071;28;20079;-79
2023/12/28 08:59:57;;;;;;;3.70;1.42;;;;;;;;;;5053031;28;20029;-79
2023/12/28 09:02:22;;;;;;;3.70;1.42;;;;;;;;;;5048808;28;20059;-79
2023/12/28 09:04:48;;;;;;;2.97;1.45;;;;;;;;;;5052241;28;20033;-80
2023/12/28 09:07:14;;;;;;;4.15;1.63;;;;;;;;;;5052030;28;20147;-80
2023/12/28 09:09:39;;;;;;;3.53;1.40;;;;;;;;;;5052743;28;20716;-80
2023/12/28 09:12:05;;;;;;;4.47;1.70;;;;;;;;;;5040684;28;20029;-80
2023/12/28 09:14:30;;;;;;;5.43;1.70;;;;;;;;;;5054788;28;20047;-81
2023/12/28 09:16:56;;;;;;;3.28;1.58;;;;;;;;;;5051027;28;20411;-79
2023/12/28 09:19:22;;;;;;;5.28;1.70;;;;;;;;;;5053419;28;20053;-79
2023/12/28 09:21:48;;;;;;;4.20;1.50;;;;;;;;;;5052186;28;20853;-79
2023/12/28 09:24:15;;;;;;;3.95;1.48;;;;;;;;;;5054619;28;20036;-81
2023/12/28 09:26:46;;;;;;;3.88;1.75;;;;;;;;;;5054192;28;20632;-80
2023/12/28 09:29:15;;;;;;;4.22;1.83;;;;;;;;;;5040352;28;20119;-79
2023/12/28 09:31:43;;;;;;;4.25;1.60;;;;;;;;;;5039627;28;20188;-79
2023/12/28 09:34:09;;;;;;;3.80;1.60;;;;;;;;;;5040685;28;20040;-80
2023/12/28 09:36:34;;;;;;;3.15;1.60;;;;;;;;;;5050109;28;20063;-79
2023/12/28 09:39:00;;;;;;;4.00;1.70;;;;;;;;;;5048676;28;20103;-79
2023/12/28 09:41:26;;;;;;;3.85;1.80;;;;;;;;;;5051387;28;20033;-79
2023/12/28 09:44:08;;;;;;;3.60;1.75;;;;;;;;;;5042486;28;20525;-79
2023/12/28 09:46:33;;;;;;;3.88;1.60;;;;;;;;;;5051588;28;20040;-79
2023/12/28 09:48:59;;;;;;;6.30;1.80;;;;;;;;;;5044689;28;20838;-79
2023/12/28 09:51:25;;;;;;;4.25;1.60;;;;;;;;;;5054928;28;20128;-79
2023/12/28 09:53:53;;;;;;;4.00;1.80;;;;;;;;;;5036766;28;20037;-79
2023/12/28 09:56:28;;;;;;;3.65;1.52;;;;;;;;;;5065115;28;20330;-79
2023/12/28 09:58:55;;;;;;;4.40;1.63;;;;;;;;;;5044524;28;20113;-81
2023/12/28 10:01:20;;;;;;;6.47;1.80;;;;;;;;;;5045790;28;20041;-81
2023/12/28 10:03:46;;;;;;;4.22;1.58;;;;;;;;;;5060555;28;20039;-80
2023/12/28 10:06:11;;;;;;;3.60;1.75;;;;;;;;;;5050271;28;20039;-80
2023/12/28 10:08:37;;;;;;;5.05;1.95;;;;;;;;;;5082151;28;20568;-81
2023/12/28 10:11:02;;;;;;;4.38;1.70;;;;;;;;;;5038127;28;20039;-81
2023/12/28 10:13:28;;;;;;;3.92;1.67;;;;;;;;;;5042897;28;20028;-80
2023/12/28 10:15:57;;;;;;;4.05;1.67;;;;;;;;;;5063066;28;20119;-78
2023/12/28 10:18:23;;;;;;;4.70;1.83;;;;;;;;;;5055935;28;20029;-79
2023/12/28 10:20:53;;;;;;;5.22;1.98;;;;;;;;;;5057081;28;20446;-78
2023/12/28 10:23:21;;;;;;;4.32;1.90;;;;;;;;;;5073118;28;20136;-77
2023/12/28 10:25:46;;;;;;;4.80;1.80;;;;;;;;;;5058536;28;20048;-78
2023/12/28 10:28:12;;;;;;;4.70;1.85;;;;;;;;;;5056294;28;20040;-77
2023/12/28 10:30:39;;;;;;;4.60;2.30;;;;;;;;;;5055046;28;20036;-77
2023/12/28 10:33:06;;;;;;;4.55;1.80;;;;;;;;;;5056248;28;20037;-77
2023/12/28 10:35:31;;;;;;;3.53;1.70;;;;;;;;;;5047974;28;20040;-77
2023/12/28 10:38:00;;;;;;;8.13;2.10;;;;;;;;;;5072017;28;20032;-77
2023/12/28 10:40:26;;;;;;;3.50;1.70;;;;;;;;;;5056548;28;20033;-78
2023/12/28 10:43:02;;;;;;;3.70;1.63;;;;;;;;;;5055352;28;20090;-77
2023/12/28 10:45:32;;;;;;;4.10;2.05;;;;;;;;;;5053410;28;20404;-77
2023/12/28 10:48:08;;;;;;;3.88;1.90;;;;;;;;;;5048477;28;20033;-78
2023/12/28 10:50:46;;;;;;;6.95;2.10;;;;;;;;;;5058042;28;20078;-78
2023/12/28 10:54:09;;;;;;;4.78;2.22;;;;;;;;;;5072552;28;20735;-77
2023/12/28 10:56:40;;;;;;;4.13;1.85;;;;;;;;;;5024157;28;20041;-78
2023/12/28 10:59:25;;;;;;;5.07;1.80;;;;;;;;;;5019004;28;20033;-77
2023/12/28 11:01:57;;;;;;;4.05;1.85;;;;;;;;;;5044186;28;20037;-77
2023/12/28 11:04:55;;;;;;;5.40;1.90;;;;;;;;;;5056069;28;20056;-80
2023/12/28 11:07:21;;;;;;;4.00;1.80;;;;;;;;;;5046974;28;20033;-81
2023/12/28 11:09:47;;;;;;;3.15;1.50;;;;;;;;;;5047951;28;20517;-79
2023/12/28 11:12:17;;;;;;;4.20;1.90;;;;;;;;;;5052240;28;20034;-79
2023/12/28 11:14:43;;;;;;;3.30;1.52;;;;;;;;;;5064919;28;20040;-79
2023/12/28 11:17:11;;;;;;;4.90;1.80;;;;;;;;;;5019305;28;20034;-82
2023/12/28 11:19:37;;;;;;;5.28;1.60;;;;;;;;;;5054597;28;20511;-79
2023/12/28 11:22:04;;;;;;;5.88;1.95;;;;;;;;;;5050351;28;20060;-81
2023/12/28 11:24:30;;;;;;;4.80;1.92;;;;;;;;;;5046535;28;20037;-80
2023/12/28 11:26:56;;;;;;;3.40;1.48;;;;;;;;;;5038156;28;20517;-80
2023/12/28 11:29:22;;;;;;;4.47;1.60;;;;;;;;;;5047196;28;20041;-80
2023/12/28 11:31:54;;;;;;;4.22;1.50;;;;;;;;;;5070657;28;20151;-79
2023/12/28 11:34:28;;;;;;;4.53;1.75;;;;;;;;;;5056542;28;20099;-79
2023/12/28 11:36:55;;;;;;;4.13;1.60;;;;;;;;;;5038633;28;20043;-79
2023/12/28 11:39:33;;;;;;;5.85;1.67;;;;;;;;;;5055846;28;20041;-79
2023/12/28 11:42:08;;;;;;;3.20;1.40;;;;;;;;;;5058501;28;20168;-81
2023/12/28 11:44:41;;;;;;;6.07;1.60;;;;;;;;;;5044038;28;20496;-80
2023/12/28 11:47:14;;;;;;;4.10;1.60;;;;;;;;;;5051145;28;20069;-80
2023/12/28 11:49:40;;;;;;;4.07;1.40;;;;;;;;;;5053993;28;20090;-80
2023/12/28 11:52:07;;;;;;;5.18;1.75;;;;;;;;;;5029155;28;20032;-80
2023/12/28 11:54:49;;;;;;;4.10;1.70;;;;;;;;;;5054564;28;20032;-81
2023/12/28 11:57:15;;;;;;;5.25;1.52;;;;;;;;;;5053575;28;20055;-80
2023/12/28 11:59:41;;;;;;;3.30;1.50;;;;;;;;;;5053303;28;20037;-82
2023/12/28 12:02:13;;;;;;;3.67;1.35;;;;;;;;;;5039433;28;20033;-79
2023/12/28 12:04:39;;;;;;;3.55;1.45;;;;;;;;;;5045751;28;20032;-81
2023/12/28 12:07:04;;;;;;;4.10;1.60;;;;;;;;;;5061614;28;20486;-79
2023/12/28 12:09:34;;;;;;;3.55;1.33;;;;;;;;;;5043495;28;20052;-80
2023/12/28 12:12:01;;;;;;;4.10;1.45;;;;;;;;;;5054269;28;20519;-83
2023/12/28 12:14:34;;;;;;;3.20;1.20;;;;;;;;;;5062003;28;20036;-81
2023/12/28 12:17:00;;;;;;;3.30;1.55;;;;;;;;;;5054027;28;20523;-81
2023/12/28 12:19:26;;;;;;;4.20;1.48;;;;;;;;;;5047306;28;20056;-81
2023/12/28 12:21:59;;;;;;;3.58;1.50;;;;;;;;;;5057342;28;20119;-80
2023/12/28 12:24:25;;;;;;;4.90;1.50;;;;;;;;;;5056398;28;20049;-80
2023/12/28 12:26:51;;;;;;;4.18;1.70;;;;;;;;;;5055150;28;20029;-80
2023/12/28 12:29:25;;;;;;;4.78;1.63;;;;;;;;;;5055938;28;20516;-79
2023/12/28 12:31:51;;;;;;;3.50;1.52;;;;;;;;;;5054160;28;20041;-78
2023/12/28 12:34:17;;;;;;;3.90;1.30;;;;;;;;;;5053870;28;20041;-80
2023/12/28 12:36:43;;;;;;;4.15;1.40;;;;;;;;;;5046215;28;20067;-79
2023/12/28 12:39:12;;;;;;;3.35;1.30;;;;;;;;;;5053951;28;20033;-79
2023/12/28 12:41:40;;;;;;;4.60;1.67;;;;;;;;;;5055989;28;20503;-80
2023/12/28 12:44:05;;;;;;;3.85;1.30;;;;;;;;;;5055466;28;20032;-79
2023/12/28 12:46:31;;;;;;;5.88;1.60;;;;;;;;;;5053639;28;20773;-80
2023/12/28 12:48:57;;;;;;;3.97;1.63;;;;;;;;;;5054388;28;20067;-81
2023/12/28 12:51:23;;;;;;;3.83;1.30;;;;;;;;;;5071511;28;20032;-82
2023/12/28 12:53:49;;;;;;;6.03;1.80;;;;;;;;;;5053475;28;20039;-80
2023/12/28 12:56:15;;;;;;;6.82;2.92;;;;;;;;;;5054578;28;20485;-80
2023/12/28 12:58:40;;;;;;;5.10;1.55;;;;;;;;;;5047073;28;20115;-78
2023/12/28 13:01:10;;;;;;;5.00;1.40;;;;;;;;;;5053110;28;20041;-80
2023/12/28 13:03:35;;;;;;;3.67;1.40;;;;;;;;;;5075498;28;20081;-79
2023/12/28 13:06:03;;;;;;;3.40;1.40;;;;;;;;;;5057226;28;20033;-80
2023/12/28 13:08:29;;;;;;;3.40;1.60;;;;;;;;;;5039599;28;20396;-78
2023/12/28 13:10:54;;;;;;;5.07;1.83;;;;;;;;;;5041961;28;20033;-82
2023/12/28 13:13:22;;;;;;;4.20;1.60;;;;;;;;;;5055221;28;20049;-79
2023/12/28 13:15:47;;;;;;;4.40;1.70;;;;;;;;;;5054050;28;20040;-80
2023/12/28 13:18:13;;;;;;;4.70;1.60;;;;;;;;;;5053505;28;20395;-80
2023/12/28 13:20:38;;;;;;;3.85;1.30;;;;;;;;;;5052081;28;20061;-79
2023/12/28 13:23:04;;;;;;;4.25;1.40;;;;;;;;;;5067892;28;20454;-81
2023/12/28 13:25:29;;;;;;;6.30;1.70;;;;;;;;;;5057781;28;20132;-80
2023/12/28 13:27:54;;;;;;;3.47;1.52;;;;;;;;;;5054344;28;20396;-81
2023/12/28 13:30:21;;;;;;;3.90;1.40;;;;;;;;;;5053499;28;20428;-78
2023/12/28 13:32:47;;;;;;;4.57;1.48;;;;;;;;;;5055107;28;20400;-80
2023/12/28 13:35:13;;;;;;;4.82;1.70;;;;;;;;;;5041486;28;20033;-80
2023/12/28 13:37:38;;;;;;;4.32;1.70;;;;;;;;;;5052482;28;20041;-81
2023/12/28 13:40:07;;;;;;;4.90;1.80;;;;;;;;;;5054713;28;20037;-81
2023/12/28 13:42:33;;;;;;;5.32;1.90;;;;;;;;;;5054141;28;20036;-79
2023/12/28 13:44:58;;;;;;;3.95;1.40;;;;;;;;;;5048438;28;20506;-79
2023/12/28 13:47:23;;;;;;;3.63;1.42;;;;;;;;;;5057012;28;20028;-80
2023/12/28 13:49:49;;;;;;;4.45;1.52;;;;;;;;;;5055325;28;20041;-80
2023/12/28 13:52:14;;;;;;;4.70;1.65;;;;;;;;;;5056500;28;20488;-78
2023/12/28 13:54:40;;;;;;;4.30;2.17;;;;;;;;;;5054856;28;20039;-80
2023/12/28 13:57:05;;;;;;;4.00;1.60;;;;;;;;;;5069666;28;20472;-79
2023/12/28 13:59:31;;;;;;;7.22;1.45;;;;;;;;;;5047625;28;20064;-78
2023/12/28 14:01:58;;;;;;;3.97;1.67;;;;;;;;;;5054944;28;20029;-80
2023/12/28 14:04:23;;;;;;;4.38;1.73;;;;;;;;;;5054577;28;20036;-79
2023/12/28 14:06:49;;;;;;;4.93;1.42;;;;;;;;;;5056412;28;20041;-80
2023/12/28 14:09:19;;;;;;;4.57;1.50;;;;;;;;;;5049841;28;20080;-78
2023/12/28 14:11:45;;;;;;;4.28;1.60;;;;;;;;;;5038398;28;20067;-79
2023/12/28 14:14:11;;;;;;;4.70;1.40;;;;;;;;;;5054354;28;20502;-79
2023/12/28 14:16:36;;;;;;;3.60;1.60;;;;;;;;;;5058188;28;20116;-80
2023/12/28 14:19:01;;;;;;;5.15;1.70;;;;;;;;;;5073176;28;20037;-79
2023/12/28 14:21:27;;;;;;;3.90;1.60;;;;;;;;;;5060749;28;20041;-81
2023/12/28 14:23:53;;;;;;;4.15;1.40;;;;;;;;;;5054518;28;20029;-81
2023/12/28 14:26:21;;;;;;;5.20;1.52;;;;;;;;;;5053992;28;20397;-81
2023/12/28 14:28:46;;;;;;;4.97;1.75;;;;;;;;;;5053628;28;20102;-79
2023/12/28 14:31:12;;;;;;;4.80;1.50;;;;;;;;;;5045857;28;20033;-80
2023/12/28 14:33:42;;;;;;;5.65;1.50;;;;;;;;;;5051781;28;20231;-78
2023/12/28 14:36:31;;;;;;;3.17;1.33;;;;;;;;;;5062112;28;20028;-80
2023/12/28 14:39:00;;;;;;;5.13;1.50;;;;;;;;;;5058697;28;20033;-80
2023/12/28 14:41:26;;;;;;;6.43;1.63;;;;;;;;;;5042025;28;20484;-79